Friday, October 19, 2018, 7:24 AM EDT
Back to Local

KMPO, Mt Pocono Pocono Mountains

Location: Pocono Summit, PA, United States Lat: 41.133
Local Time: 7:24 AM EDT (11:24 GMT) Lon: -75.383
Time Zone: US/Eastern Elev: 1915 ft

Show me the last for .
Show Coded

Time T Td Feel RH Dir Speed Gust Alt SLP Vis Weather Sky Remarks
2018-10-19 06:53 32 28 25 85 260° 8 - 30.25 30.30 10 CLR None
2018-10-19 05:53 33 29 25 84 290° 9 - 30.24 30.29 10 CLR None
2018-10-19 04:53 33 29 25 84 280° 9 - 30.25 30.29 10 CLR None
2018-10-19 03:53 33 29 25 84 280° 10 - 30.25 30.30 10 CLR None
2018-10-19 02:53 33 28 25 81 280° 10 - 30.26 30.31 10 CLR None
2018-10-19 01:53 31 27 23 85 280° 9 - 30.26 30.32 10 CLR 6-hr Min Temp (2am): 30.0°F
6-hr Max Temp (2am): 34.0°F
2018-10-19 00:53 31 26 25 81 260° 6 - 30.27 30.32 10 CLR 24-hr Min Temp (1am): 30.0°F
24-hr Max Temp (1am): 42.1°F
2018-10-18 23:53 32 26 25 78 310° 8 - 30.28 30.34 10 CLR None
2018-10-18 22:53 33 26 25 75 310° 10 - 30.28 30.34 10 CLR None
2018-10-18 21:53 32 27 24 81 310° 9 - 30.29 30.35 10 CLR None
2018-10-18 20:53 32 26 26 78 310° 7 - 30.30 30.36 10 CLR None
2018-10-18 19:53 33 25 28 71 270° 6 - 30.30 30.36 10 CLR 6-hr Min Temp (8pm): 33.1°F
6-hr Max Temp (8pm): 42.1°F
2018-10-18 18:53 36 24 32 61 280° 5 - 30.30 30.36 10 CLR None
2018-10-18 17:53 39 23 31 52 300° 13 - 30.29 30.34 10 CLR None
2018-10-18 16:53 41 22 32 46 300° 10 20 30.27 30.32 10 CLR None
2018-10-18 15:53 41 20 32 42 300° 20 - 30.29 30.33 10 CLR None
2018-10-18 14:53 40 19 29 42 290° 16 26 30.29 30.34 10 CLR None
2018-10-18 13:53 41 21 31 44 320° 18 24 30.31 30.35 10 CLR 6-hr Min Temp (2pm): 30.9°F
6-hr Max Temp (2pm): 41.0°F
2018-10-18 12:53 40 20 29 44 300° 16 28 30.32 30.36 10 CLR Peak wind: 31 mph (27 kts) from 330° at 02 min
2018-10-18 11:53 38 18 25 43 310° 23 33 30.33 30.37 10 CLR Peak wind: 33 mph (29 kts) from 320° at 42 min
2018-10-18 10:53 37 20 25 49 300° 20 29 30.32 30.37 10 CLR Peak wind: 33 mph (29 kts) from 300° at 20 min
2018-10-18 09:53 34 18 19 51 320° 25 39 30.29 30.34 10 CLR Peak wind: 39 mph (34 kts) from 310° at 47 min
2018-10-18 08:53 33 22 20 63 320° 17 28 30.25 30.30 10 CLR None
2018-10-18 07:53 31 21 18 66 310° 16 22 30.26 30.31 10 BKN046 Peak wind: 34 mph (30 kts) from 320° at 18 min
6-hr Min Temp (8am): 30.9°F
6-hr Max Temp (8am): 33.1°F

Support USWX by starting your Amazon purchase here.